Time;durP1;ratioP1;P1;durP2;ratioP2;P2;SDS_P1;SDS_P2;PMS_P1;PMS_P2;Temp;Humidity;BMP_temperature;BMP_pressure;BME280_temperature;BME280_humidity;BME280_pressure;Samples;Min_cycle;Max_cycle;Signal;HPM_P1;HPM_P2
2023/12/06 00:02:27;;;;;;;1.97;1.67;;;9.00;92.00;;;;;;5092183;28;20914;-65
2023/12/06 00:04:53;;;;;;;1.80;1.70;;;9.00;92.00;;;;;;5091802;28;20940;-64
2023/12/06 00:07:21;;;;;;;2.00;1.80;;;9.10;92.00;;;;;;5092162;28;20465;-64
2023/12/06 00:09:47;;;;;;;2.60;1.60;;;9.10;92.00;;;;;;5091614;28;20486;-65
2023/12/06 00:12:14;;;;;;;1.63;1.53;;;9.20;91.80;;;;;;5091865;28;20438;-65
2023/12/06 00:14:41;;;;;;;1.93;1.67;;;9.30;91.70;;;;;;5089804;28;20291;-64
2023/12/06 00:17:08;;;;;;;2.40;1.90;;;9.30;91.60;;;;;;5092062;28;20526;-65
2023/12/06 00:19:35;;;;;;;2.43;1.70;;;9.20;91.70;;;;;;5091622;28;21008;-65
2023/12/06 00:22:02;;;;;;;2.70;1.70;;;9.20;91.90;;;;;;5081301;28;20443;-65
2023/12/06 00:24:30;;;;;;;2.57;1.93;;;9.10;91.90;;;;;;5089850;28;20488;-65
2023/12/06 00:26:57;;;;;;;2.57;1.93;;;9.00;92.10;;;;;;5091369;28;20557;-65
2023/12/06 00:29:24;;;;;;;2.60;1.90;;;9.00;92.10;;;;;;5091636;28;20530;-65
2023/12/06 00:31:51;;;;;;;2.70;2.10;;;9.00;92.10;;;;;;5091965;28;20576;-65
2023/12/06 00:34:17;;;;;;;2.63;2.00;;;9.00;92.30;;;;;;5091992;28;20469;-65
2023/12/06 00:36:44;;;;;;;2.47;2.00;;;9.00;92.30;;;;;;5091436;28;20438;-65
2023/12/06 00:39:13;;;;;;;2.70;1.83;;;8.90;92.30;;;;;;5091748;28;20470;-64
2023/12/06 00:41:42;;;;;;;2.03;1.80;;;9.00;92.20;;;;;;5091037;28;20439;-64
2023/12/06 00:44:09;;;;;;;1.80;1.60;;;9.10;92.20;;;;;;5091496;28;20455;-65
2023/12/06 00:46:36;;;;;;;1.90;1.63;;;9.10;92.10;;;;;;5091300;28;20442;-64
2023/12/06 00:49:04;;;;;;;2.67;1.63;;;9.10;92.00;;;;;;5091579;28;20926;-65
2023/12/06 00:51:33;;;;;;;2.50;1.80;;;9.20;92.10;;;;;;5090900;28;20845;-65
2023/12/06 00:54:00;;;;;;;1.60;1.50;;;9.20;92.10;;;;;;5090294;28;20926;-64
2023/12/06 00:56:27;;;;;;;2.60;1.60;;;9.20;92.10;;;;;;5091518;28;20474;-65
2023/12/06 00:58:55;;;;;;;2.77;1.60;;;9.20;92.00;;;;;;5091944;28;20447;-65
2023/12/06 01:01:22;;;;;;;2.90;2.47;;;9.20;92.00;;;;;;5088925;28;20990;-65
2023/12/06 01:03:49;;;;;;;1.83;1.73;;;9.30;91.90;;;;;;5091576;28;20438;-65
2023/12/06 01:06:16;;;;;;;1.80;1.60;;;9.20;91.90;;;;;;5077377;28;20439;-65
2023/12/06 01:08:44;;;;;;;3.30;1.93;;;9.20;92.10;;;;;;5107138;28;20443;-65
2023/12/06 01:11:10;;;;;;;2.27;1.90;;;9.30;92.00;;;;;;5092499;28;20559;-65
2023/12/06 01:13:40;;;;;;;3.03;2.03;;;9.30;91.90;;;;;;5090694;28;20473;-65
2023/12/06 01:16:09;;;;;;;2.40;1.87;;;9.30;91.90;;;;;;5091699;28;20449;-65
2023/12/06 01:18:38;;;;;;;2.40;2.20;;;9.30;92.00;;;;;;5090649;28;20435;-66
2023/12/06 01:21:06;;;;;;;3.50;1.77;;;9.20;92.10;;;;;;5091328;28;20938;-65
2023/12/06 01:23:33;;;;;;;2.93;1.80;;;9.30;92.20;;;;;;5090815;28;20439;-64
2023/12/06 01:26:00;;;;;;;4.17;1.80;;;9.30;92.10;;;;;;5091552;28;20533;-65
2023/12/06 01:28:28;;;;;;;2.00;1.80;;;9.40;92.00;;;;;;5091399;28;20798;-65
2023/12/06 01:30:55;;;;;;;3.23;2.10;;;9.40;91.90;;;;;;5091017;28;20577;-65
2023/12/06 01:33:25;;;;;;;1.93;1.77;;;9.40;91.80;;;;;;5091822;28;20439;-65
2023/12/06 01:35:52;;;;;;;2.90;1.83;;;9.40;91.90;;;;;;5090800;28;20458;-65
2023/12/06 01:38:19;;;;;;;2.67;1.80;;;9.40;92.00;;;;;;5091542;28;20453;-65
2023/12/06 01:40:49;;;;;;;2.23;1.97;;;9.40;92.10;;;;;;5091252;28;20905;-64
2023/12/06 01:43:15;;;;;;;2.30;2.10;;;9.40;92.00;;;;;;5091353;28;20812;-65
2023/12/06 01:45:42;;;;;;;2.40;2.00;;;9.40;92.00;;;;;;5090832;28;21016;-65
2023/12/06 01:48:10;;;;;;;2.07;1.73;;;9.40;92.00;;;;;;5090952;28;20466;-65
2023/12/06 01:53:17;;;;;;;2.00;1.80;;;9.50;92.00;;;;;;5303028;22;20501;-65
2023/12/06 01:55:45;;;;;;;4.13;1.73;;;9.50;92.00;;;;;;5100422;28;20446;-64
2023/12/06 01:58:13;;;;;;;5.00;1.90;;;9.60;91.90;;;;;;5107492;28;20442;-65
2023/12/06 02:00:40;;;;;;;4.30;2.57;;;9.60;91.90;;;;;;5110046;28;20495;-63
2023/12/06 02:03:07;;;;;;;3.03;2.30;;;9.60;92.10;;;;;;5100143;28;20439;-66
2023/12/06 02:05:34;;;;;;;4.03;2.30;;;9.50;91.80;;;;;;5096711;28;20462;-65
2023/12/06 02:08:03;;;;;;;2.80;2.47;;;9.60;91.90;;;;;;5091729;28;20525;-65
2023/12/06 02:10:31;;;;;;;3.90;3.10;;;9.50;92.00;;;;;;5091323;28;20474;-65
2023/12/06 02:12:58;;;;;;;6.90;3.70;;;9.40;92.20;;;;;;5108325;28;20437;-65
2023/12/06 02:15:24;;;;;;;3.97;2.60;;;9.30;92.40;;;;;;5113574;28;20437;-65
2023/12/06 02:17:52;;;;;;;3.73;2.60;;;9.30;92.40;;;;;;5106481;28;20466;-66
2023/12/06 02:20:19;;;;;;;5.07;3.03;;;9.40;92.30;;;;;;5096090;28;20451;-65
2023/12/06 02:22:46;;;;;;;3.10;2.37;;;9.50;92.40;;;;;;5104238;28;20520;-65
2023/12/06 02:25:16;;;;;;;2.97;2.30;;;9.50;92.20;;;;;;5106191;28;20793;-65
2023/12/06 02:27:44;;;;;;;3.30;2.30;;;9.50;92.40;;;;;;5095515;28;20446;-65
2023/12/06 02:30:12;;;;;;;2.77;2.10;;;9.50;92.20;;;;;;5109353;28;20458;-65
2023/12/06 02:32:38;;;;;;;4.10;2.20;;;9.60;92.10;;;;;;5114595;28;20445;-65
2023/12/06 02:35:24;;;;;;;2.60;2.03;;;9.50;92.00;;;;;;5105666;28;20948;-65
2023/12/06 02:37:55;;;;;;;2.93;2.13;;;9.60;92.10;;;;;;5109092;28;20445;-65
2023/12/06 02:40:25;;;;;;;3.60;3.30;;;9.50;92.00;;;;;;5058444;28;20438;-64
2023/12/06 02:42:52;;;;;;;3.87;2.40;;;9.50;92.20;;;;;;5098496;28;20567;-65
2023/12/06 02:45:19;;;;;;;2.60;2.30;;;9.50;92.30;;;;;;5106769;28;20447;-65
2023/12/06 02:47:47;;;;;;;3.53;2.33;;;9.40;92.30;;;;;;5111168;28;20465;-65
2023/12/06 02:50:14;;;;;;;4.80;2.40;;;9.50;92.60;;;;;;5110936;28;20452;-65
2023/12/06 02:52:40;;;;;;;2.43;2.00;;;9.50;92.30;;;;;;5112408;28;20481;-65
2023/12/06 02:55:08;;;;;;;2.73;2.10;;;9.60;92.20;;;;;;5103442;28;20462;-65
2023/12/06 02:57:36;;;;;;;3.47;2.20;;;9.50;92.10;;;;;;5112981;28;21001;-64
2023/12/06 03:00:05;;;;;;;2.10;1.90;;;9.50;92.20;;;;;;5101093;28;21055;-65
2023/12/06 03:02:31;;;;;;;3.20;2.07;;;9.50;92.30;;;;;;5101613;28;20454;-65
2023/12/06 03:04:58;;;;;;;2.40;2.20;;;9.50;92.30;;;;;;5100337;28;20453;-65
2023/12/06 03:07:25;;;;;;;4.37;2.87;;;9.50;92.30;;;;;;5094019;28;20481;-65
2023/12/06 03:09:53;;;;;;;3.83;2.10;;;9.40;92.40;;;;;;5102020;28;20444;-65
2023/12/06 03:12:20;;;;;;;4.27;2.43;;;9.50;92.40;;;;;;5114232;28;20484;-65
2023/12/06 03:14:48;;;;;;;3.77;2.10;;;9.40;92.50;;;;;;5110686;28;20445;-65
2023/12/06 03:17:15;;;;;;;4.17;2.17;;;9.40;92.40;;;;;;5094134;28;20443;-64
2023/12/06 03:19:42;;;;;;;2.63;1.97;;;9.40;92.30;;;;;;5097915;28;20437;-65
2023/12/06 03:22:09;;;;;;;2.50;2.20;;;9.40;92.30;;;;;;5106871;28;20440;-64
2023/12/06 03:24:35;;;;;;;2.60;2.10;;;9.40;92.30;;;;;;5102535;28;20473;-65
2023/12/06 03:27:02;;;;;;;3.33;2.03;;;9.50;92.40;;;;;;5114169;28;20450;-65
2023/12/06 03:29:29;;;;;;;4.30;2.63;;;9.50;92.20;;;;;;5101576;28;20465;-65
2023/12/06 03:31:57;;;;;;;3.00;2.10;;;9.60;92.20;;;;;;5099950;28;20480;-65
2023/12/06 03:34:24;;;;;;;2.40;2.20;;;9.50;92.30;;;;;;5101524;28;20494;-64
2023/12/06 03:36:51;;;;;;;3.27;2.27;;;9.50;92.30;;;;;;5109639;28;20465;-65
2023/12/06 03:39:18;;;;;;;2.90;2.17;;;9.50;92.50;;;;;;5113147;28;20448;-65
2023/12/06 03:41:45;;;;;;;3.50;2.10;;;9.50;92.30;;;;;;5111081;28;20465;-65
2023/12/06 03:44:11;;;;;;;2.57;2.20;;;9.40;92.30;;;;;;5110653;28;20942;-65
2023/12/06 03:46:38;;;;;;;4.00;2.40;;;9.50;92.40;;;;;;5096634;28;20457;-65
2023/12/06 03:49:07;;;;;;;5.57;2.67;;;9.50;92.40;;;;;;5107122;28;20440;-65
2023/12/06 03:51:34;;;;;;;2.97;2.30;;;9.50;92.20;;;;;;5112176;28;20473;-64
2023/12/06 03:54:01;;;;;;;4.27;2.13;;;9.60;92.20;;;;;;5100496;28;20824;-65
2023/12/06 03:56:27;;;;;;;3.87;2.20;;;9.50;92.20;;;;;;5107892;28;20446;-65
2023/12/06 03:58:55;;;;;;;3.83;2.50;;;9.60;92.10;;;;;;5066057;28;20446;-65
2023/12/06 04:01:22;;;;;;;3.00;2.30;;;9.50;92.10;;;;;;5093064;28;20450;-65
2023/12/06 04:03:49;;;;;;;2.40;2.10;;;9.50;92.10;;;;;;5093042;28;20442;-64
2023/12/06 04:06:17;;;;;;;6.27;2.53;;;9.50;92.10;;;;;;5100519;28;20489;-64
2023/12/06 04:08:44;;;;;;;4.73;2.57;;;9.40;92.20;;;;;;5093517;28;20438;-65
2023/12/06 04:11:10;;;;;;;3.90;2.17;;;9.40;92.30;;;;;;5093996;28;20478;-65
2023/12/06 04:13:37;;;;;;;3.23;2.40;;;9.40;92.30;;;;;;5093280;28;20466;-65
2023/12/06 04:16:05;;;;;;;3.20;2.30;;;9.50;92.30;;;;;;5103170;28;20528;-65
2023/12/06 04:18:32;;;;;;;3.10;2.50;;;9.50;92.20;;;;;;5078098;28;20554;-65
2023/12/06 04:20:59;;;;;;;4.00;2.23;;;9.50;92.20;;;;;;5092896;28;20449;-65
2023/12/06 04:23:27;;;;;;;3.20;2.20;;;9.50;92.20;;;;;;5106108;28;20438;-65
2023/12/06 04:25:54;;;;;;;5.20;3.03;;;9.60;92.20;;;;;;5102296;28;20442;-65
2023/12/06 04:28:21;;;;;;;3.00;2.20;;;9.60;92.10;;;;;;5092933;28;20946;-65
2023/12/06 04:30:47;;;;;;;2.83;2.30;;;9.60;92.10;;;;;;5108955;28;20492;-65
2023/12/06 04:33:14;;;;;;;5.70;2.60;;;9.50;92.40;;;;;;5107999;28;20486;-65
2023/12/06 04:35:41;;;;;;;4.47;2.30;;;9.40;92.70;;;;;;5099732;28;20960;-65
2023/12/06 04:38:09;;;;;;;4.67;2.63;;;9.50;92.40;;;;;;5095783;28;20482;-65
2023/12/06 04:40:40;;;;;;;4.00;2.60;;;9.60;92.30;;;;;;5112812;28;20445;-64
2023/12/06 04:43:06;;;;;;;4.47;2.50;;;9.70;92.10;;;;;;5107598;28;20449;-65
2023/12/06 04:45:33;;;;;;;2.83;2.30;;;9.60;92.00;;;;;;5096109;28;20797;-65
2023/12/06 04:48:00;;;;;;;2.50;2.10;;;9.60;92.00;;;;;;5097246;28;20465;-65
2023/12/06 04:50:27;;;;;;;2.50;2.30;;;9.60;92.00;;;;;;5101127;28;20600;-65
2023/12/06 04:52:54;;;;;;;3.80;2.40;;;9.70;91.90;;;;;;5092434;28;20500;-65
2023/12/06 04:55:21;;;;;;;3.07;2.70;;;9.70;92.00;;;;;;5100925;28;21024;-65
2023/12/06 04:57:51;;;;;;;2.93;2.40;;;9.60;91.90;;;;;;5073823;28;20960;-65
2023/12/06 05:00:21;;;;;;;3.70;2.50;;;9.50;92.20;;;;;;5092892;28;20463;-65
2023/12/06 05:02:49;;;;;;;3.33;2.70;;;9.40;92.30;;;;;;5083313;28;20500;-64
2023/12/06 05:05:16;;;;;;;3.00;2.70;;;9.40;92.30;;;;;;5106222;28;20450;-65
2023/12/06 05:07:43;;;;;;;4.77;2.70;;;9.40;92.30;;;;;;5093036;28;20449;-65
2023/12/06 05:10:10;;;;;;;4.07;2.70;;;9.50;92.30;;;;;;5092232;28;20817;-65
2023/12/06 05:12:36;;;;;;;3.00;2.63;;;9.50;92.30;;;;;;5103263;28;20491;-65
2023/12/06 05:15:06;;;;;;;3.53;2.73;;;9.50;92.20;;;;;;5108646;28;20446;-65
2023/12/06 05:17:33;;;;;;;3.37;2.47;;;9.50;92.20;;;;;;5108719;28;20532;-65
2023/12/06 05:20:00;;;;;;;2.93;2.63;;;9.50;92.20;;;;;;5089047;28;20447;-65
2023/12/06 05:22:27;;;;;;;4.17;2.53;;;9.60;92.50;;;;;;5097633;28;20452;-65
2023/12/06 05:24:53;;;;;;;3.53;2.77;;;9.50;92.10;;;;;;5091929;28;20466;-65
2023/12/06 05:27:21;;;;;;;5.23;3.07;;;9.50;92.10;;;;;;5112280;28;20437;-65
2023/12/06 05:29:48;;;;;;;3.57;2.40;;;9.50;92.10;;;;;;5110774;28;20499;-65
2023/12/06 05:32:16;;;;;;;6.83;2.90;;;9.50;92.00;;;;;;5102787;28;20481;-65
2023/12/06 05:34:43;;;;;;;5.53;3.07;;;9.60;92.00;;;;;;5104729;28;20473;-65
2023/12/06 05:37:10;;;;;;;5.13;3.00;;;9.60;91.90;;;;;;5102392;28;20469;-65
2023/12/06 05:39:38;;;;;;;3.10;2.50;;;9.60;91.90;;;;;;5119929;28;20433;-65
2023/12/06 05:42:05;;;;;;;3.90;2.90;;;9.60;92.00;;;;;;5106456;28;20449;-65
2023/12/06 05:44:32;;;;;;;2.80;2.50;;;9.70;92.20;;;;;;5120144;28;20472;-66
2023/12/06 05:46:59;;;;;;;2.90;2.60;;;9.60;91.80;;;;;;5128086;28;20497;-64
2023/12/06 05:49:27;;;;;;;5.47;2.63;;;9.50;91.90;;;;;;5121675;28;20457;-65
2023/12/06 05:51:54;;;;;;;4.57;2.70;;;9.50;92.00;;;;;;5117162;28;20481;-63
2023/12/06 05:54:21;;;;;;;3.33;2.50;;;9.60;91.90;;;;;;5113329;28;20505;-65
2023/12/06 05:56:48;;;;;;;4.13;2.90;;;9.50;92.00;;;;;;5067839;28;20445;-64
2023/12/06 05:59:15;;;;;;;3.23;2.83;;;9.50;92.50;;;;;;5111622;28;20446;-65
2023/12/06 06:01:42;;;;;;;3.13;2.83;;;9.50;92.00;;;;;;5101249;28;20462;-65
2023/12/06 06:04:09;;;;;;;4.00;3.07;;;9.50;92.10;;;;;;5101515;28;20453;-65
2023/12/06 06:06:37;;;;;;;4.07;3.60;;;9.50;92.00;;;;;;5100669;28;20947;-65
2023/12/06 06:09:04;;;;;;;8.87;4.07;;;9.40;92.00;;;;;;5109052;28;20958;-65
2023/12/06 06:11:31;;;;;;;5.40;4.20;;;9.50;92.00;;;;;;5099078;28;20460;-65
2023/12/06 06:13:58;;;;;;;4.23;3.43;;;9.40;92.00;;;;;;5100027;28;20475;-64
2023/12/06 06:16:24;;;;;;;4.43;3.47;;;9.40;91.90;;;;;;5095499;28;20448;-65
2023/12/06 06:18:51;;;;;;;4.63;3.80;;;9.40;92.00;;;;;;5103391;28;20469;-63
2023/12/06 06:21:19;;;;;;;3.97;3.57;;;9.40;92.00;;;;;;5095798;28;20818;-64
2023/12/06 06:23:47;;;;;;;4.83;3.80;;;9.40;91.80;;;;;;5048142;28;20443;-63
2023/12/06 06:26:14;;;;;;;4.83;3.90;;;9.40;91.90;;;;;;5102116;28;20452;-64
2023/12/06 06:28:42;;;;;;;4.50;4.10;;;9.50;91.70;;;;;;5101683;28;20498;-64
2023/12/06 06:31:09;;;;;;;5.50;3.93;;;9.30;92.10;;;;;;5107542;28;20800;-63
2023/12/06 06:33:36;;;;;;;5.53;4.23;;;9.40;91.90;;;;;;5102205;28;20477;-63
2023/12/06 06:36:04;;;;;;;6.80;5.60;;;9.40;91.70;;;;;;5107855;28;21560;-64
2023/12/06 06:38:32;;;;;;;5.03;4.17;;;9.40;91.60;;;;;;5102543;28;21048;-63
2023/12/06 06:41:00;;;;;;;5.07;4.40;;;9.30;91.70;;;;;;5107994;28;20515;-64
2023/12/06 06:43:27;;;;;;;6.47;4.50;;;9.30;91.70;;;;;;5107287;28;20820;-64
2023/12/06 06:45:54;;;;;;;5.20;4.70;;;9.30;91.90;;;;;;5099160;28;20549;-64
2023/12/06 06:48:21;;;;;;;6.10;4.33;;;9.30;91.80;;;;;;5106236;28;20522;-63
2023/12/06 06:50:48;;;;;;;7.07;5.10;;;9.30;91.60;;;;;;5109395;28;20462;-64
2023/12/06 06:53:15;;;;;;;8.80;5.00;;;9.40;92.00;;;;;;5098955;28;20690;-64
2023/12/06 06:55:42;;;;;;;7.40;5.27;;;9.30;91.50;;;;;;5095128;28;20474;-64
2023/12/06 06:58:10;;;;;;;6.00;4.80;;;9.20;92.00;;;;;;5102921;28;20937;-63
2023/12/06 07:00:37;;;;;;;6.23;5.17;;;9.10;91.80;;;;;;5095729;28;20457;-63
2023/12/06 07:03:04;;;;;;;6.07;5.20;;;9.10;91.80;;;;;;5103842;28;20443;-62
2023/12/06 07:05:32;;;;;;;6.67;5.60;;;9.20;91.60;;;;;;5101686;28;20481;-63
2023/12/06 07:07:59;;;;;;;6.60;5.33;;;9.10;91.60;;;;;;5093646;28;20982;-63
2023/12/06 07:10:26;;;;;;;6.47;5.03;;;9.10;91.60;;;;;;5074711;28;20500;-63
2023/12/06 07:12:53;;;;;;;6.73;6.00;;;9.10;91.60;;;;;;5082198;28;20478;-63
2023/12/06 07:15:21;;;;;;;8.23;5.90;;;9.10;91.70;;;;;;5086643;28;20453;-64
2023/12/06 07:17:48;;;;;;;6.97;5.53;;;9.10;91.50;;;;;;5100519;28;20446;-63
2023/12/06 07:20:17;;;;;;;8.37;6.03;;;9.10;91.40;;;;;;5107887;28;20466;-63
2023/12/06 07:22:44;;;;;;;6.97;5.60;;;9.20;91.20;;;;;;5098123;28;20446;-63
2023/12/06 07:25:14;;;;;;;6.60;5.13;;;9.10;91.30;;;;;;5105191;28;20453;-64
2023/12/06 07:27:41;;;;;;;7.00;5.37;;;9.20;91.10;;;;;;5093911;28;20948;-63
2023/12/06 07:30:08;;;;;;;7.03;6.03;;;9.30;90.90;;;;;;5093770;28;20482;-64
2023/12/06 07:32:37;;;;;;;7.30;6.10;;;9.30;90.70;;;;;;5096794;28;20501;-63
2023/12/06 07:35:04;;;;;;;7.67;6.87;;;9.20;90.80;;;;;;5090190;28;20470;-64
2023/12/06 07:37:31;;;;;;;6.83;6.13;;;9.20;90.80;;;;;;5082276;28;20446;-64
2023/12/06 07:39:57;;;;;;;8.97;7.27;;;9.20;90.90;;;;;;5090303;28;20447;-63
2023/12/06 07:42:24;;;;;;;8.57;6.50;;;9.20;90.70;;;;;;5081710;28;20494;-63
2023/12/06 07:44:51;;;;;;;10.60;6.57;;;9.20;90.80;;;;;;5092743;28;20553;-64
2023/12/06 07:47:18;;;;;;;7.70;6.40;;;9.20;90.70;;;;;;5093938;28;20442;-62
2023/12/06 07:49:46;;;;;;;8.00;6.80;;;9.20;90.70;;;;;;5093763;28;20474;-64
2023/12/06 07:52:13;;;;;;;7.13;6.43;;;9.30;90.50;;;;;;5093549;28;20477;-64
2023/12/06 07:54:40;;;;;;;6.90;6.17;;;9.30;90.40;;;;;;5088311;28;20454;-64
2023/12/06 07:57:08;;;;;;;7.27;6.57;;;9.40;90.50;;;;;;5093050;28;20625;-63
2023/12/06 07:59:35;;;;;;;9.73;6.80;;;9.30;89.60;;;;;;5057777;28;20449;-63
2023/12/06 08:02:02;;;;;;;7.17;6.47;;;9.20;90.00;;;;;;5092707;28;20537;-62
2023/12/06 08:04:29;;;;;;;7.87;6.77;;;9.10;89.90;;;;;;5093251;28;20435;-63
2023/12/06 08:06:57;;;;;;;9.20;7.20;;;9.10;90.00;;;;;;5091386;28;20537;-64
2023/12/06 08:09:25;;;;;;;7.33;6.53;;;9.10;89.80;;;;;;5090003;28;20530;-64
2023/12/06 08:11:52;;;;;;;7.60;6.53;;;9.10;89.40;;;;;;5092342;28;20457;-63
2023/12/06 08:14:19;;;;;;;7.33;6.37;;;9.10;88.60;;;;;;5076174;28;20491;-63
2023/12/06 08:16:46;;;;;;;6.87;6.17;;;9.10;88.90;;;;;;5072495;28;20457;-63
2023/12/06 08:19:13;;;;;;;6.63;5.93;;;9.20;88.70;;;;;;5072898;28;20447;-63
2023/12/06 08:21:39;;;;;;;8.40;6.90;;;9.20;87.50;;;;;;5087794;28;20449;-64
2023/12/06 08:24:08;;;;;;;7.33;6.63;;;9.30;87.60;;;;;;5092362;28;20439;-64
2023/12/06 08:26:35;;;;;;;7.43;6.60;;;9.30;87.40;;;;;;5089218;28;20475;-63
2023/12/06 08:29:02;;;;;;;6.80;6.10;;;9.30;87.20;;;;;;5054478;28;20447;-63
2023/12/06 08:31:32;;;;;;;7.77;6.77;;;9.30;87.50;;;;;;5072076;28;20803;-63
2023/12/06 08:33:59;;;;;;;7.30;6.60;;;9.30;87.10;;;;;;5072008;28;20486;-63
2023/12/06 08:36:26;;;;;;;7.83;6.97;;;9.20;87.30;;;;;;5074582;28;20629;-64
2023/12/06 08:38:53;;;;;;;8.07;7.20;;;9.30;87.40;;;;;;5091605;28;20473;-64
2023/12/06 08:41:23;;;;;;;9.43;8.10;;;9.30;87.30;;;;;;5091993;28;20449;-63
2023/12/06 08:43:50;;;;;;;10.13;8.17;;;9.20;87.80;;;;;;5088407;28;20871;-63
2023/12/06 08:46:16;;;;;;;9.77;8.77;;;9.30;88.00;;;;;;5073219;28;20484;-63
2023/12/06 08:48:43;;;;;;;8.97;7.40;;;9.20;88.20;;;;;;5091461;28;20464;-63
2023/12/06 08:51:10;;;;;;;8.60;7.43;;;9.20;88.10;;;;;;5091300;28;20994;-64
2023/12/06 08:53:37;;;;;;;8.83;7.93;;;9.30;88.60;;;;;;5091667;28;21201;-64
2023/12/06 08:56:04;;;;;;;9.10;7.90;;;9.40;88.30;;;;;;5090359;28;20526;-63
2023/12/06 08:58:33;;;;;;;9.33;7.97;;;9.40;88.60;;;;;;5074594;28;20503;-63
2023/12/06 09:00:59;;;;;;;9.20;7.90;;;9.30;88.60;;;;;;5075883;28;20446;-63
2023/12/06 09:03:28;;;;;;;9.33;8.27;;;9.40;88.70;;;;;;5090750;28;20443;-64
2023/12/06 09:05:55;;;;;;;9.90;8.00;;;9.40;88.00;;;;;;5090124;28;20714;-64
2023/12/06 09:08:22;;;;;;;10.50;9.10;;;9.40;88.30;;;;;;5091541;28;20456;-64
2023/12/06 09:10:49;;;;;;;11.23;9.13;;;9.50;88.20;;;;;;5091853;28;20477;-64
2023/12/06 09:13:16;;;;;;;9.80;8.20;;;9.50;87.70;;;;;;5076055;28;20484;-63
2023/12/06 09:15:45;;;;;;;9.43;8.43;;;9.40;88.00;;;;;;5071383;28;20475;-64
2023/12/06 09:18:12;;;;;;;11.97;9.27;;;9.40;88.00;;;;;;5041490;28;20447;-64
2023/12/06 09:20:38;;;;;;;10.00;8.97;;;9.40;87.60;;;;;;5037879;28;20510;-63
2023/12/06 09:23:05;;;;;;;12.23;10.63;;;9.30;87.90;;;;;;5088888;28;20462;-63
2023/12/06 09:25:32;;;;;;;10.40;8.77;;;9.30;87.80;;;;;;5091641;28;20557;-64
2023/12/06 09:28:03;;;;;;;9.77;8.13;;;9.30;87.60;;;;;;5091418;28;20446;-64
2023/12/06 09:30:30;;;;;;;11.87;8.93;;;9.20;88.00;;;;;;5091476;28;20471;-63
2023/12/06 09:32:58;;;;;;;10.33;9.10;;;9.10;88.30;;;;;;5081044;28;20478;-63
2023/12/06 09:35:25;;;;;;;10.13;9.13;;;9.10;88.40;;;;;;5078798;28;20462;-62
2023/12/06 09:37:52;;;;;;;9.77;8.47;;;9.10;88.50;;;;;;5091348;28;21021;-64
2023/12/06 09:40:20;;;;;;;10.23;8.40;;;9.10;88.50;;;;;;5089696;28;20443;-63
2023/12/06 09:42:51;;;;;;;11.07;9.00;;;9.10;88.30;;;;;;5091134;28;20469;-64
2023/12/06 09:45:21;;;;;;;10.20;9.20;;;9.00;88.50;;;;;;5090921;28;20922;-62
2023/12/06 09:47:49;;;;;;;12.00;9.37;;;9.00;88.40;;;;;;5091080;28;20517;-63
2023/12/06 09:50:18;;;;;;;10.23;9.03;;;9.00;88.50;;;;;;5081328;28;20539;-64
2023/12/06 09:52:45;;;;;;;10.20;8.33;;;9.10;88.30;;;;;;5081273;28;20565;-63
2023/12/06 09:55:14;;;;;;;10.73;8.13;;;9.10;88.20;;;;;;5050485;28;20940;-63
2023/12/06 09:57:42;;;;;;;9.00;7.57;;;9.10;88.10;;;;;;5070972;28;20447;-63
2023/12/06 10:00:14;;;;;;;9.47;8.43;;;9.10;88.30;;;;;;5074745;28;20461;-63
2023/12/06 10:02:51;;;;;;;8.70;7.53;;;9.00;87.90;;;;;;5086296;28;20446;-64
2023/12/06 10:05:19;;;;;;;9.63;8.27;;;8.90;88.30;;;;;;5071071;28;20501;-63
2023/12/06 10:07:47;;;;;;;9.43;7.90;;;8.90;88.10;;;;;;5070993;28;20467;-63
2023/12/06 10:10:15;;;;;;;12.40;8.77;;;9.00;88.40;;;;;;5085777;28;20545;-62
2023/12/06 10:12:47;;;;;;;11.07;8.53;;;9.00;88.50;;;;;;5090790;28;20902;-63
2023/12/06 10:15:14;;;;;;;10.70;8.53;;;9.10;88.60;;;;;;5090506;28;20449;-64
2023/12/06 10:17:41;;;;;;;8.87;7.90;;;9.10;88.60;;;;;;5090795;28;20491;-63
2023/12/06 10:20:08;;;;;;;11.13;8.63;;;9.20;88.60;;;;;;5090931;28;20827;-64
2023/12/06 10:22:37;;;;;;;12.10;8.30;;;9.20;88.20;;;;;;5091581;28;20813;-63
2023/12/06 10:25:06;;;;;;;8.77;7.87;;;9.20;88.30;;;;;;5080409;28;20526;-64
2023/12/06 10:27:34;;;;;;;11.20;8.83;;;9.30;88.10;;;;;;5071625;28;20477;-63
2023/12/06 10:30:04;;;;;;;9.87;8.70;;;9.20;87.50;;;;;;5089359;28;20451;-64
2023/12/06 10:32:34;;;;;;;8.90;8.00;;;9.20;87.80;;;;;;5091713;28;20837;-63
2023/12/06 10:35:03;;;;;;;12.17;8.73;;;9.20;88.20;;;;;;5093827;28;20494;-64
2023/12/06 10:37:30;;;;;;;12.60;7.97;;;9.20;88.30;;;;;;5094403;28;20442;-64
2023/12/06 10:40:09;;;;;;;10.10;8.27;;;9.20;88.20;;;;;;5094407;28;20553;-63
2023/12/06 10:42:38;;;;;;;11.40;8.00;;;9.20;87.70;;;;;;5079105;28;21014;-64
2023/12/06 10:45:06;;;;;;;10.33;8.40;;;9.20;87.90;;;;;;5086134;28;20513;-63
2023/12/06 10:47:34;;;;;;;10.47;8.27;;;9.10;87.60;;;;;;5073812;28;20447;-63
2023/12/06 10:50:03;;;;;;;9.53;8.17;;;9.20;88.30;;;;;;5039509;28;20462;-64
2023/12/06 10:52:30;;;;;;;9.53;8.27;;;9.10;87.90;;;;;;5086731;28;20478;-63
2023/12/06 10:54:59;;;;;;;11.00;9.53;;;9.20;88.30;;;;;;5091471;28;20504;-63
2023/12/06 10:57:27;;;;;;;9.43;8.37;;;9.20;87.70;;;;;;5073917;28;20812;-64
2023/12/06 10:59:57;;;;;;;9.53;8.53;;;9.20;87.70;;;;;;5077613;28;20458;-63
2023/12/06 11:02:24;;;;;;;9.77;7.93;;;9.10;87.70;;;;;;5093630;28;20778;-63
2023/12/06 11:04:57;;;;;;;10.63;9.20;;;9.20;87.70;;;;;;5093651;28;20463;-64
2023/12/06 11:07:46;;;;;;;9.27;8.27;;;9.30;87.40;;;;;;5094391;28;20451;-63
2023/12/06 11:10:28;;;;;;;9.80;8.63;;;9.30;87.50;;;;;;5093915;28;20446;-63
2023/12/06 11:13:09;;;;;;;9.60;8.60;;;9.30;86.90;;;;;;5093955;28;20482;-63
2023/12/06 11:15:50;;;;;;;8.73;7.83;;;9.20;87.10;;;;;;5088978;28;20446;-63
2023/12/06 11:18:20;;;;;;;9.50;8.07;;;9.30;87.10;;;;;;5074082;28;20459;-64
2023/12/06 11:20:47;;;;;;;12.30;9.03;;;9.30;87.20;;;;;;5073263;28;20439;-63
2023/12/06 11:23:21;;;;;;;8.93;7.73;;;9.20;86.80;;;;;;5081956;28;20911;-63
2023/12/06 11:25:50;;;;;;;9.20;7.43;;;9.20;86.90;;;;;;5073676;28;20465;-64
2023/12/06 11:28:20;;;;;;;11.97;9.73;;;9.20;86.70;;;;;;5074058;28;20534;-63
2023/12/06 11:30:51;;;;;;;10.43;8.23;;;9.10;86.10;;;;;;5076406;28;20467;-64
2023/12/06 11:33:19;;;;;;;9.93;8.00;;;9.20;86.70;;;;;;5073567;28;20876;-63
2023/12/06 11:35:46;;;;;;;8.83;7.50;;;9.20;86.40;;;;;;5092503;28;20527;-64
2023/12/06 11:38:14;;;;;;;8.47;7.60;;;9.20;86.70;;;;;;5093433;28;20442;-62
2023/12/06 11:40:51;;;;;;;13.33;8.67;;;9.20;86.80;;;;;;5080775;28;20483;-64
2023/12/06 11:43:19;;;;;;;8.60;7.40;;;9.20;86.90;;;;;;5072901;28;20580;-64
2023/12/06 11:45:47;;;;;;;8.67;7.77;;;9.30;87.20;;;;;;5071471;28;20541;-63
2023/12/06 11:48:14;;;;;;;10.10;8.30;;;9.40;86.90;;;;;;5072624;28;20484;-64
2023/12/06 11:50:42;;;;;;;9.20;8.13;;;9.50;86.40;;;;;;5081087;28;20514;-63
2023/12/06 11:53:11;;;;;;;11.73;8.70;;;9.60;86.00;;;;;;5072290;28;20997;-64
2023/12/06 11:55:39;;;;;;;8.73;7.00;;;9.70;86.10;;;;;;5072914;28;20452;-63
2023/12/06 11:58:11;;;;;;;10.00;8.03;;;9.70;85.80;;;;;;5072151;28;20447;-63
2023/12/06 12:00:40;;;;;;;10.00;8.27;;;9.90;85.90;;;;;;5082127;28;20515;-63
2023/12/06 12:03:09;;;;;;;10.60;8.00;;;9.90;85.80;;;;;;5091692;28;20470;-63
2023/12/06 12:05:37;;;;;;;9.20;7.47;;;10.00;84.20;;;;;;5092893;28;20495;-62
2023/12/06 12:08:07;;;;;;;10.50;8.70;;;10.00;84.30;;;;;;5086982;28;20531;-63
2023/12/06 12:10:35;;;;;;;11.50;8.23;;;10.00;84.10;;;;;;5072508;28;20451;-64
2023/12/06 12:13:02;;;;;;;9.77;8.77;;;10.00;84.40;;;;;;5085355;28;20438;-63
2023/12/06 12:15:30;;;;;;;9.20;8.17;;;10.00;84.10;;;;;;5091892;28;20478;-64
2023/12/06 12:17:57;;;;;;;11.37;9.30;;;10.00;84.20;;;;;;5086313;28;20432;-62
2023/12/06 12:20:25;;;;;;;9.03;8.10;;;10.10;84.10;;;;;;5072362;28;20871;-63
2023/12/06 12:22:55;;;;;;;8.73;7.83;;;10.10;84.20;;;;;;5087399;28;20533;-64
2023/12/06 12:25:23;;;;;;;9.30;8.17;;;10.20;84.00;;;;;;5084364;28;20505;-64
2023/12/06 12:27:50;;;;;;;8.70;7.70;;;10.30;84.00;;;;;;5071638;28;20505;-63
2023/12/06 12:30:17;;;;;;;11.07;9.03;;;10.30;83.50;;;;;;5071928;28;20439;-63
2023/12/06 12:32:48;;;;;;;10.70;9.10;;;10.30;84.10;;;;;;5085939;28;20498;-64
2023/12/06 12:35:18;;;;;;;9.23;7.87;;;10.40;83.70;;;;;;5092190;28;20478;-64
2023/12/06 12:37:46;;;;;;;9.87;8.20;;;10.30;82.70;;;;;;5090652;28;20488;-63
2023/12/06 12:40:14;;;;;;;10.60;8.53;;;10.30;83.80;;;;;;5091874;28;20526;-63
2023/12/06 12:42:42;;;;;;;9.63;8.10;;;10.30;83.60;;;;;;5045195;28;20440;-63
2023/12/06 12:45:14;;;;;;;10.87;9.20;;;10.30;83.90;;;;;;5071225;28;20543;-64
2023/12/06 12:47:41;;;;;;;11.83;10.43;;;10.20;83.00;;;;;;5072783;28;20983;-63
2023/12/06 12:50:10;;;;;;;12.37;8.57;;;10.20;83.40;;;;;;5071603;28;20443;-63
2023/12/06 12:52:39;;;;;;;10.20;8.23;;;10.20;83.20;;;;;;5071914;28;20566;-64
2023/12/06 12:55:06;;;;;;;10.40;8.90;;;10.10;82.90;;;;;;5071318;28;20829;-63
2023/12/06 12:57:40;;;;;;;10.33;8.20;;;10.10;83.70;;;;;;5084157;28;20445;-63
2023/12/06 13:00:18;;;;;;;8.00;7.20;;;10.20;83.60;;;;;;5079894;28;20446;-63
2023/12/06 13:02:45;;;;;;;9.57;7.43;;;10.20;83.30;;;;;;5089017;28;20438;-63